sensor_id;sensor_type;location;lat;lon;timestamp;temperature;humidity
1680;DHT22;838;51.794;12.258;2022-07-15T00:00:10;17.40;1.00
1680;DHT22;838;51.794;12.258;2022-07-15T00:02:37;17.40;1.00
1680;DHT22;838;51.794;12.258;2022-07-15T00:05:04;17.30;1.00
1680;DHT22;838;51.794;12.258;2022-07-15T00:07:30;17.10;1.00
1680;DHT22;838;51.794;12.258;2022-07-15T00:09:56;17.10;1.00
1680;DHT22;838;51.794;12.258;2022-07-15T00:12:45;17.00;1.00
1680;DHT22;838;51.794;12.258;2022-07-15T00:15:12;17.00;1.00
1680;DHT22;838;51.794;12.258;2022-07-15T00:17:39;16.90;1.00
1680;DHT22;838;51.794;12.258;2022-07-15T00:20:06;16.90;1.20
1680;DHT22;838;51.794;12.258;2022-07-15T00:22:32;16.60;2.10
1680;DHT22;838;51.794;12.258;2022-07-15T00:24:57;16.50;3.10
1680;DHT22;838;51.794;12.258;2022-07-15T00:27:24;16.30;4.10
1680;DHT22;838;51.794;12.258;2022-07-15T00:29:49;16.20;5.20
1680;DHT22;838;51.794;12.258;2022-07-15T00:32:16;16.00;6.70
1680;DHT22;838;51.794;12.258;2022-07-15T00:34:42;15.80;8.00
1680;DHT22;838;51.794;12.258;2022-07-15T00:37:08;15.80;8.40
1680;DHT22;838;51.794;12.258;2022-07-15T00:39:34;15.70;9.20
1680;DHT22;838;51.794;12.258;2022-07-15T00:41:59;15.60;9.90
1680;DHT22;838;51.794;12.258;2022-07-15T00:44:26;15.50;11.00
1680;DHT22;838;51.794;12.258;2022-07-15T00:46:52;15.40;11.70
1680;DHT22;838;51.794;12.258;2022-07-15T00:49:19;15.40;12.10
1680;DHT22;838;51.794;12.258;2022-07-15T00:51:47;15.40;12.20
1680;DHT22;838;51.794;12.258;2022-07-15T00:54:15;15.30;12.80
1680;DHT22;838;51.794;12.258;2022-07-15T00:56:55;15.20;14.00
1680;DHT22;838;51.794;12.258;2022-07-15T00:59:23;15.00;15.30
1680;DHT22;838;51.794;12.258;2022-07-15T01:01:52;14.90;16.00
1680;DHT22;838;51.794;12.258;2022-07-15T01:04:18;14.80;16.70
1680;DHT22;838;51.794;12.258;2022-07-15T01:06:44;14.90;17.10
1680;DHT22;838;51.794;12.258;2022-07-15T01:09:10;14.80;17.20
1680;DHT22;838;51.794;12.258;2022-07-15T01:11:36;14.90;17.10
1680;DHT22;838;51.794;12.258;2022-07-15T01:14:03;15.00;16.40
1680;DHT22;838;51.794;12.258;2022-07-15T01:16:29;14.90;16.90
1680;DHT22;838;51.794;12.258;2022-07-15T01:18:55;15.00;16.90
1680;DHT22;838;51.794;12.258;2022-07-15T01:21:21;15.00;16.60
1680;DHT22;838;51.794;12.258;2022-07-15T01:23:47;14.90;17.30
1680;DHT22;838;51.794;12.258;2022-07-15T01:26:13;14.80;17.80
1680;DHT22;838;51.794;12.258;2022-07-15T01:28:40;14.80;17.80
1680;DHT22;838;51.794;12.258;2022-07-15T01:31:06;14.80;18.10
1680;DHT22;838;51.794;12.258;2022-07-15T01:33:32;14.90;18.10
1680;DHT22;838;51.794;12.258;2022-07-15T01:35:59;14.90;18.30
1680;DHT22;838;51.794;12.258;2022-07-15T01:38:27;15.00;18.30
1680;DHT22;838;51.794;12.258;2022-07-15T01:40:54;15.20;16.80
1680;DHT22;838;51.794;12.258;2022-07-15T01:43:20;15.40;15.60
1680;DHT22;838;51.794;12.258;2022-07-15T01:45:46;15.50;15.00
1680;DHT22;838;51.794;12.258;2022-07-15T01:48:12;15.60;14.60
1680;DHT22;838;51.794;12.258;2022-07-15T01:50:58;15.60;14.50
1680;DHT22;838;51.794;12.258;2022-07-15T01:53:25;15.50;15.70
1680;DHT22;838;51.794;12.258;2022-07-15T01:55:51;15.60;15.40
1680;DHT22;838;51.794;12.258;2022-07-15T01:58:17;15.50;15.50
1680;DHT22;838;51.794;12.258;2022-07-15T02:00:43;15.50;15.20
1680;DHT22;838;51.794;12.258;2022-07-15T02:03:08;15.60;15.10
1680;DHT22;838;51.794;12.258;2022-07-15T02:05:35;15.60;14.90
1680;DHT22;838;51.794;12.258;2022-07-15T02:08:01;15.60;15.00
1680;DHT22;838;51.794;12.258;2022-07-15T02:10:28;15.50;16.40
1680;DHT22;838;51.794;12.258;2022-07-15T02:13:17;15.40;16.70
1680;DHT22;838;51.794;12.258;2022-07-15T02:15:42;15.40;16.80
1680;DHT22;838;51.794;12.258;2022-07-15T02:18:08;15.50;16.50
1680;DHT22;838;51.794;12.258;2022-07-15T02:20:36;15.50;17.00
1680;DHT22;838;51.794;12.258;2022-07-15T02:23:02;15.30;18.20
1680;DHT22;838;51.794;12.258;2022-07-15T02:25:30;15.20;19.30
1680;DHT22;838;51.794;12.258;2022-07-15T02:28:02;15.10;20.70
1680;DHT22;838;51.794;12.258;2022-07-15T02:30:32;14.90;22.20
1680;DHT22;838;51.794;12.258;2022-07-15T02:32:58;14.60;24.40
1680;DHT22;838;51.794;12.258;2022-07-15T02:35:24;14.50;26.30
1680;DHT22;838;51.794;12.258;2022-07-15T02:37:50;14.30;28.10
1680;DHT22;838;51.794;12.258;2022-07-15T02:40:16;14.30;29.10
1680;DHT22;838;51.794;12.258;2022-07-15T02:42:50;14.30;29.70
1680;DHT22;838;51.794;12.258;2022-07-15T02:45:17;14.20;30.40
1680;DHT22;838;51.794;12.258;2022-07-15T02:47:43;14.10;31.40
1680;DHT22;838;51.794;12.258;2022-07-15T02:50:09;14.10;33.00
1680;DHT22;838;51.794;12.258;2022-07-15T02:52:35;14.00;34.00
1680;DHT22;838;51.794;12.258;2022-07-15T02:55:01;14.00;34.70
1680;DHT22;838;51.794;12.258;2022-07-15T02:57:27;13.90;35.60
1680;DHT22;838;51.794;12.258;2022-07-15T02:59:53;14.00;34.90
1680;DHT22;838;51.794;12.258;2022-07-15T03:02:19;14.10;34.00
1680;DHT22;838;51.794;12.258;2022-07-15T03:04:45;14.10;33.90
1680;DHT22;838;51.794;12.258;2022-07-15T03:07:10;14.20;32.60
1680;DHT22;838;51.794;12.258;2022-07-15T03:09:37;14.20;32.80
1680;DHT22;838;51.794;12.258;2022-07-15T03:12:03;14.20;33.40
1680;DHT22;838;51.794;12.258;2022-07-15T03:14:29;14.20;33.40
1680;DHT22;838;51.794;12.258;2022-07-15T03:16:54;14.10;33.90
1680;DHT22;838;51.794;12.258;2022-07-15T03:19:20;14.00;36.20
1680;DHT22;838;51.794;12.258;2022-07-15T03:21:47;14.00;35.70
1680;DHT22;838;51.794;12.258;2022-07-15T03:24:13;14.10;34.40
1680;DHT22;838;51.794;12.258;2022-07-15T03:26:39;14.10;34.80
1680;DHT22;838;51.794;12.258;2022-07-15T03:29:05;14.30;33.20
1680;DHT22;838;51.794;12.258;2022-07-15T03:31:31;14.60;30.50
1680;DHT22;838;51.794;12.258;2022-07-15T03:33:58;14.80;28.80
1680;DHT22;838;51.794;12.258;2022-07-15T03:36:24;14.90;27.50
1680;DHT22;838;51.794;12.258;2022-07-15T03:38:50;14.90;28.00
1680;DHT22;838;51.794;12.258;2022-07-15T03:41:20;14.90;27.60
1680;DHT22;838;51.794;12.258;2022-07-15T03:43:47;15.10;26.60
1680;DHT22;838;51.794;12.258;2022-07-15T03:46:13;15.10;27.10
1680;DHT22;838;51.794;12.258;2022-07-15T03:48:42;15.10;26.60
1680;DHT22;838;51.794;12.258;2022-07-15T03:51:07;15.10;26.60
1680;DHT22;838;51.794;12.258;2022-07-15T03:53:33;15.10;26.80
1680;DHT22;838;51.794;12.258;2022-07-15T03:55:59;15.10;26.60
1680;DHT22;838;51.794;12.258;2022-07-15T03:58:25;15.10;27.70
1680;DHT22;838;51.794;12.258;2022-07-15T04:00:50;15.30;26.20
1680;DHT22;838;51.794;12.258;2022-07-15T04:03:16;15.40;25.80
1680;DHT22;838;51.794;12.258;2022-07-15T04:05:42;15.30;26.20
1680;DHT22;838;51.794;12.258;2022-07-15T04:08:08;15.30;27.30
1680;DHT22;838;51.794;12.258;2022-07-15T04:10:34;15.30;27.50
1680;DHT22;838;51.794;12.258;2022-07-15T04:13:00;15.50;26.30
1680;DHT22;838;51.794;12.258;2022-07-15T04:15:25;15.70;25.00
1680;DHT22;838;51.794;12.258;2022-07-15T04:17:51;15.60;26.50
1680;DHT22;838;51.794;12.258;2022-07-15T04:20:17;15.60;27.00
1680;DHT22;838;51.794;12.258;2022-07-15T04:22:44;15.50;26.90
1680;DHT22;838;51.794;12.258;2022-07-15T04:25:15;15.40;28.50
1680;DHT22;838;51.794;12.258;2022-07-15T04:27:42;15.20;30.00
1680;DHT22;838;51.794;12.258;2022-07-15T04:30:08;15.10;31.70
1680;DHT22;838;51.794;12.258;2022-07-15T04:32:35;15.10;32.30
1680;DHT22;838;51.794;12.258;2022-07-15T04:35:00;15.30;30.80
1680;DHT22;838;51.794;12.258;2022-07-15T04:37:27;15.30;30.60
1680;DHT22;838;51.794;12.258;2022-07-15T04:39:53;15.40;30.40
1680;DHT22;838;51.794;12.258;2022-07-15T04:42:21;15.30;31.40
1680;DHT22;838;51.794;12.258;2022-07-15T04:44:47;15.40;31.30
1680;DHT22;838;51.794;12.258;2022-07-15T04:47:14;15.40;31.60
1680;DHT22;838;51.794;12.258;2022-07-15T04:49:39;15.60;31.00
1680;DHT22;838;51.794;12.258;2022-07-15T04:52:24;15.60;31.20
1680;DHT22;838;51.794;12.258;2022-07-15T04:54:51;15.70;30.50
1680;DHT22;838;51.794;12.258;2022-07-15T04:57:17;15.70;30.10
1680;DHT22;838;51.794;12.258;2022-07-15T04:59:42;15.70;30.30
1680;DHT22;838;51.794;12.258;2022-07-15T05:02:08;15.60;32.00
1680;DHT22;838;51.794;12.258;2022-07-15T05:04:34;15.60;32.00
1680;DHT22;838;51.794;12.258;2022-07-15T05:06:59;15.60;32.20
1680;DHT22;838;51.794;12.258;2022-07-15T05:09:25;15.70;31.50
1680;DHT22;838;51.794;12.258;2022-07-15T05:11:51;15.70;32.30
1680;DHT22;838;51.794;12.258;2022-07-15T05:14:16;15.80;31.00
1680;DHT22;838;51.794;12.258;2022-07-15T05:16:42;15.80;31.10
1680;DHT22;838;51.794;12.258;2022-07-15T05:19:08;15.80;30.20
1680;DHT22;838;51.794;12.258;2022-07-15T05:21:33;15.80;33.30
1680;DHT22;838;51.794;12.258;2022-07-15T05:23:59;15.90;30.90
1680;DHT22;838;51.794;12.258;2022-07-15T05:26:24;16.00;31.20
1680;DHT22;838;51.794;12.258;2022-07-15T05:28:50;15.90;32.00
1680;DHT22;838;51.794;12.258;2022-07-15T05:31:16;15.90;32.40
1680;DHT22;838;51.794;12.258;2022-07-15T05:33:42;16.10;31.10
1680;DHT22;838;51.794;12.258;2022-07-15T05:36:15;16.40;30.90
1680;DHT22;838;51.794;12.258;2022-07-15T05:38:42;16.50;28.50
1680;DHT22;838;51.794;12.258;2022-07-15T05:41:08;16.60;28.00
1680;DHT22;838;51.794;12.258;2022-07-15T05:43:34;16.60;26.70
1680;DHT22;838;51.794;12.258;2022-07-15T05:46:01;16.30;27.40
1680;DHT22;838;51.794;12.258;2022-07-15T05:48:26;16.20;28.20
1680;DHT22;838;51.794;12.258;2022-07-15T05:50:52;16.40;28.20
1680;DHT22;838;51.794;12.258;2022-07-15T05:53:18;16.50;27.80
1680;DHT22;838;51.794;12.258;2022-07-15T05:55:44;16.60;26.30
1680;DHT22;838;51.794;12.258;2022-07-15T05:58:09;16.70;25.20
1680;DHT22;838;51.794;12.258;2022-07-15T06:00:36;16.60;26.20
1680;DHT22;838;51.794;12.258;2022-07-15T06:03:03;16.60;25.40
1680;DHT22;838;51.794;12.258;2022-07-15T06:05:29;16.80;23.40
1680;DHT22;838;51.794;12.258;2022-07-15T06:07:55;16.80;22.80
1680;DHT22;838;51.794;12.258;2022-07-15T06:10:21;16.60;24.30
1680;DHT22;838;51.794;12.258;2022-07-15T06:12:46;16.50;23.60
1680;DHT22;838;51.794;12.258;2022-07-15T06:15:13;16.60;23.60
1680;DHT22;838;51.794;12.258;2022-07-15T06:17:39;16.70;24.70
1680;DHT22;838;51.794;12.258;2022-07-15T06:20:06;16.70;22.60
1680;DHT22;838;51.794;12.258;2022-07-15T06:22:32;16.80;23.20
1680;DHT22;838;51.794;12.258;2022-07-15T06:24:58;16.80;23.50
1680;DHT22;838;51.794;12.258;2022-07-15T06:27:23;16.80;22.20
1680;DHT22;838;51.794;12.258;2022-07-15T06:29:50;16.70;22.50
1680;DHT22;838;51.794;12.258;2022-07-15T06:32:17;16.70;21.30
1680;DHT22;838;51.794;12.258;2022-07-15T06:34:43;16.60;22.00
1680;DHT22;838;51.794;12.258;2022-07-15T06:37:09;16.70;22.30
1680;DHT22;838;51.794;12.258;2022-07-15T06:39:35;16.90;20.60
1680;DHT22;838;51.794;12.258;2022-07-15T06:42:01;16.90;19.60
1680;DHT22;838;51.794;12.258;2022-07-15T06:44:26;16.90;18.70
1680;DHT22;838;51.794;12.258;2022-07-15T06:46:52;17.00;15.90
1680;DHT22;838;51.794;12.258;2022-07-15T06:49:18;17.20;15.00
1680;DHT22;838;51.794;12.258;2022-07-15T06:51:44;17.30;15.20
1680;DHT22;838;51.794;12.258;2022-07-15T06:54:10;17.40;15.20
1680;DHT22;838;51.794;12.258;2022-07-15T06:56:37;17.50;14.20
1680;DHT22;838;51.794;12.258;2022-07-15T06:59:03;17.70;10.40
1680;DHT22;838;51.794;12.258;2022-07-15T07:01:29;17.90;7.60
1680;DHT22;838;51.794;12.258;2022-07-15T07:03:55;17.90;5.00
1680;DHT22;838;51.794;12.258;2022-07-15T07:06:21;17.80;4.90
1680;DHT22;838;51.794;12.258;2022-07-15T07:08:47;17.90;5.20
1680;DHT22;838;51.794;12.258;2022-07-15T07:11:14;18.10;3.40
1680;DHT22;838;51.794;12.258;2022-07-15T07:13:40;18.00;1.00
1680;DHT22;838;51.794;12.258;2022-07-15T07:16:06;17.80;1.00
1680;DHT22;838;51.794;12.258;2022-07-15T07:18:32;17.80;4.40
1680;DHT22;838;51.794;12.258;2022-07-15T07:20:58;17.80;1.30
1680;DHT22;838;51.794;12.258;2022-07-15T07:23:24;17.60;1.30
1680;DHT22;838;51.794;12.258;2022-07-15T07:25:52;17.70;1.20
1680;DHT22;838;51.794;12.258;2022-07-15T07:28:19;17.60;3.80
1680;DHT22;838;51.794;12.258;2022-07-15T07:30:44;17.80;4.10
1680;DHT22;838;51.794;12.258;2022-07-15T07:33:12;17.90;1.00
1680;DHT22;838;51.794;12.258;2022-07-15T07:35:38;18.30;1.00
1680;DHT22;838;51.794;12.258;2022-07-15T07:38:04;18.30;1.00
1680;DHT22;838;51.794;12.258;2022-07-15T07:40:30;18.10;1.00
1680;DHT22;838;51.794;12.258;2022-07-15T07:42:55;18.20;1.00
1680;DHT22;838;51.794;12.258;2022-07-15T07:45:22;18.10;1.00
1680;DHT22;838;51.794;12.258;2022-07-15T07:47:48;18.10;1.00
1680;DHT22;838;51.794;12.258;2022-07-15T07:50:14;17.90;1.00
1680;DHT22;838;51.794;12.258;2022-07-15T07:52:40;17.90;1.00
1680;DHT22;838;51.794;12.258;2022-07-15T07:55:08;18.00;1.00
1680;DHT22;838;51.794;12.258;2022-07-15T07:57:34;18.00;1.00
1680;DHT22;838;51.794;12.258;2022-07-15T08:00:00;18.40;1.00
1680;DHT22;838;51.794;12.258;2022-07-15T08:02:26;18.50;1.00
1680;DHT22;838;51.794;12.258;2022-07-15T08:04:52;18.80;1.00
1680;DHT22;838;51.794;12.258;2022-07-15T08:07:18;18.60;1.00
1680;DHT22;838;51.794;12.258;2022-07-15T08:09:44;18.10;1.00
1680;DHT22;838;51.794;12.258;2022-07-15T08:12:10;18.00;1.00
1680;DHT22;838;51.794;12.258;2022-07-15T08:14:36;17.80;1.00
1680;DHT22;838;51.794;12.258;2022-07-15T08:17:01;17.80;1.00
1680;DHT22;838;51.794;12.258;2022-07-15T08:19:27;17.90;1.00
1680;DHT22;838;51.794;12.258;2022-07-15T08:21:53;18.20;1.00
1680;DHT22;838;51.794;12.258;2022-07-15T08:24:18;18.50;1.00
1680;DHT22;838;51.794;12.258;2022-07-15T08:26:44;18.60;1.00
1680;DHT22;838;51.794;12.258;2022-07-15T08:29:09;18.60;1.00
1680;DHT22;838;51.794;12.258;2022-07-15T08:31:37;18.70;1.00
1680;DHT22;838;51.794;12.258;2022-07-15T08:34:04;18.80;1.00
1680;DHT22;838;51.794;12.258;2022-07-15T08:36:30;18.90;1.00
1680;DHT22;838;51.794;12.258;2022-07-15T08:38:56;19.20;1.00
1680;DHT22;838;51.794;12.258;2022-07-15T08:41:22;19.50;1.00
1680;DHT22;838;51.794;12.258;2022-07-15T08:43:47;20.00;1.00
1680;DHT22;838;51.794;12.258;2022-07-15T08:46:14;20.30;1.00
1680;DHT22;838;51.794;12.258;2022-07-15T08:48:41;19.70;1.00
1680;DHT22;838;51.794;12.258;2022-07-15T08:51:12;19.60;1.00
1680;DHT22;838;51.794;12.258;2022-07-15T08:53:38;19.40;1.00
1680;DHT22;838;51.794;12.258;2022-07-15T08:56:05;19.30;1.00
1680;DHT22;838;51.794;12.258;2022-07-15T08:58:32;19.40;1.00
1680;DHT22;838;51.794;12.258;2022-07-15T09:01:00;19.60;1.00
1680;DHT22;838;51.794;12.258;2022-07-15T09:03:25;19.70;1.00
1680;DHT22;838;51.794;12.258;2022-07-15T09:05:51;19.60;1.00
1680;DHT22;838;51.794;12.258;2022-07-15T09:08:17;19.30;1.00
1680;DHT22;838;51.794;12.258;2022-07-15T09:10:55;19.50;1.00
1680;DHT22;838;51.794;12.258;2022-07-15T09:13:31;19.10;1.00
1680;DHT22;838;51.794;12.258;2022-07-15T09:16:03;19.00;1.00
1680;DHT22;838;51.794;12.258;2022-07-15T09:18:33;19.20;1.00
1680;DHT22;838;51.794;12.258;2022-07-15T09:20:59;19.40;1.00
1680;DHT22;838;51.794;12.258;2022-07-15T09:23:29;19.60;1.00
1680;DHT22;838;51.794;12.258;2022-07-15T09:28:45;20.10;1.00
1680;DHT22;838;51.794;12.258;2022-07-15T09:31:11;20.30;1.00
1680;DHT22;838;51.794;12.258;2022-07-15T09:34:01;20.50;1.00
1680;DHT22;838;51.794;12.258;2022-07-15T09:36:29;20.30;1.00
1680;DHT22;838;51.794;12.258;2022-07-15T09:44:05;19.90;1.00
1680;DHT22;838;51.794;12.258;2022-07-15T09:49:16;19.70;1.00
1680;DHT22;838;51.794;12.258;2022-07-15T09:54:20;20.00;1.00
1680;DHT22;838;51.794;12.258;2022-07-15T09:56:47;20.00;1.00
1680;DHT22;838;51.794;12.258;2022-07-15T09:59:13;20.00;1.00
1680;DHT22;838;51.794;12.258;2022-07-15T10:01:41;20.00;1.00
1680;DHT22;838;51.794;12.258;2022-07-15T10:04:07;20.00;1.00
1680;DHT22;838;51.794;12.258;2022-07-15T10:06:34;19.70;1.00
1680;DHT22;838;51.794;12.258;2022-07-15T10:09:01;19.50;1.00
1680;DHT22;838;51.794;12.258;2022-07-15T10:11:28;19.40;1.00
1680;DHT22;838;51.794;12.258;2022-07-15T10:28:10;20.70;1.00
1680;DHT22;838;51.794;12.258;2022-07-15T10:30:39;21.20;1.00
1680;DHT22;838;51.794;12.258;2022-07-15T10:33:17;21.30;1.00
1680;DHT22;838;51.794;12.258;2022-07-15T10:35:48;21.50;1.00
1680;DHT22;838;51.794;12.258;2022-07-15T10:38:25;21.50;1.00
1680;DHT22;838;51.794;12.258;2022-07-15T10:41:12;21.50;1.00
1680;DHT22;838;51.794;12.258;2022-07-15T10:46:18;21.30;1.00
1680;DHT22;838;51.794;12.258;2022-07-15T10:48:45;21.40;1.00
1680;DHT22;838;51.794;12.258;2022-07-15T10:51:12;21.50;1.00
1680;DHT22;838;51.794;12.258;2022-07-15T10:53:48;21.40;1.00
1680;DHT22;838;51.794;12.258;2022-07-15T10:59:19;21.40;1.00
1680;DHT22;838;51.794;12.258;2022-07-15T11:02:10;21.60;1.00
1680;DHT22;838;51.794;12.258;2022-07-15T11:04:37;21.50;1.00
1680;DHT22;838;51.794;12.258;2022-07-15T11:14:58;21.70;1.00
1680;DHT22;838;51.794;12.258;2022-07-15T11:19:55;21.00;1.00
1680;DHT22;838;51.794;12.258;2022-07-15T11:22:23;20.60;1.00
1680;DHT22;838;51.794;12.258;2022-07-15T11:24:49;20.90;1.00
1680;DHT22;838;51.794;12.258;2022-07-15T11:27:15;20.90;1.00
1680;DHT22;838;51.794;12.258;2022-07-15T11:30:02;20.90;1.00
1680;DHT22;838;51.794;12.258;2022-07-15T11:32:32;20.90;1.00
1680;DHT22;838;51.794;12.258;2022-07-15T11:35:00;21.20;1.00
1680;DHT22;838;51.794;12.258;2022-07-15T11:37:32;21.30;1.00
1680;DHT22;838;51.794;12.258;2022-07-15T11:40:16;21.20;1.00
1680;DHT22;838;51.794;12.258;2022-07-15T11:43:02;21.20;1.00
1680;DHT22;838;51.794;12.258;2022-07-15T11:45:47;21.30;1.00
1680;DHT22;838;51.794;12.258;2022-07-15T11:48:13;21.60;1.00
1680;DHT22;838;51.794;12.258;2022-07-15T11:50:52;21.80;1.00
1680;DHT22;838;51.794;12.258;2022-07-15T11:53:18;22.00;1.00
1680;DHT22;838;51.794;12.258;2022-07-15T11:55:55;22.00;1.00
1680;DHT22;838;51.794;12.258;2022-07-15T11:58:30;21.80;1.00
1680;DHT22;838;51.794;12.258;2022-07-15T12:00:57;21.80;1.00
1680;DHT22;838;51.794;12.258;2022-07-15T12:03:23;21.60;1.00
1680;DHT22;838;51.794;12.258;2022-07-15T12:06:08;21.30;1.00
1680;DHT22;838;51.794;12.258;2022-07-15T12:08:39;21.10;1.00
1680;DHT22;838;51.794;12.258;2022-07-15T12:11:27;21.00;1.00
1680;DHT22;838;51.794;12.258;2022-07-15T12:16:43;21.60;1.00
1680;DHT22;838;51.794;12.258;2022-07-15T12:19:18;22.00;1.00
1680;DHT22;838;51.794;12.258;2022-07-15T12:21:47;22.00;1.00
1680;DHT22;838;51.794;12.258;2022-07-15T12:27:01;22.40;1.00
1680;DHT22;838;51.794;12.258;2022-07-15T12:29:30;21.90;1.00
1680;DHT22;838;51.794;12.258;2022-07-15T12:32:18;21.40;1.00
1680;DHT22;838;51.794;12.258;2022-07-15T12:34:57;21.10;1.00
1680;DHT22;838;51.794;12.258;2022-07-15T12:40:22;21.00;1.00
1680;DHT22;838;51.794;12.258;2022-07-15T12:42:51;20.90;1.00
1680;DHT22;838;51.794;12.258;2022-07-15T12:45:20;21.20;1.00
1680;DHT22;838;51.794;12.258;2022-07-15T12:48:08;21.40;1.00
1680;DHT22;838;51.794;12.258;2022-07-15T12:53:11;21.60;1.00
1680;DHT22;838;51.794;12.258;2022-07-15T12:55:43;21.70;1.00
1680;DHT22;838;51.794;12.258;2022-07-15T12:58:15;21.30;1.00
1680;DHT22;838;51.794;12.258;2022-07-15T13:00:43;21.40;1.00
1680;DHT22;838;51.794;12.258;2022-07-15T13:03:17;21.10;1.00
1680;DHT22;838;51.794;12.258;2022-07-15T13:08:17;22.00;1.00
1680;DHT22;838;51.794;12.258;2022-07-15T13:10:46;22.10;1.00
1680;DHT22;838;51.794;12.258;2022-07-15T13:13:13;22.20;1.00
1680;DHT22;838;51.794;12.258;2022-07-15T13:15:41;22.40;1.00
1680;DHT22;838;51.794;12.258;2022-07-15T13:18:06;22.20;1.00
1680;DHT22;838;51.794;12.258;2022-07-15T13:20:32;21.90;1.00
1680;DHT22;838;51.794;12.258;2022-07-15T13:22:58;21.50;1.00
1680;DHT22;838;51.794;12.258;2022-07-15T13:25:25;21.40;1.00
1680;DHT22;838;51.794;12.258;2022-07-15T13:27:51;21.60;1.00
1680;DHT22;838;51.794;12.258;2022-07-15T13:30:17;21.70;1.00
1680;DHT22;838;51.794;12.258;2022-07-15T13:32:43;21.70;1.00
1680;DHT22;838;51.794;12.258;2022-07-15T13:35:10;21.40;1.00
1680;DHT22;838;51.794;12.258;2022-07-15T13:37:36;21.30;1.00
1680;DHT22;838;51.794;12.258;2022-07-15T13:40:03;21.40;1.00
1680;DHT22;838;51.794;12.258;2022-07-15T13:42:29;21.40;1.00
1680;DHT22;838;51.794;12.258;2022-07-15T13:44:55;21.40;1.00
1680;DHT22;838;51.794;12.258;2022-07-15T13:47:22;21.50;1.00
1680;DHT22;838;51.794;12.258;2022-07-15T13:49:48;21.60;1.00
1680;DHT22;838;51.794;12.258;2022-07-15T13:52:32;21.40;1.00
1680;DHT22;838;51.794;12.258;2022-07-15T13:54:57;21.70;1.00
1680;DHT22;838;51.794;12.258;2022-07-15T13:57:23;21.90;1.00
1680;DHT22;838;51.794;12.258;2022-07-15T13:59:49;21.90;1.00
1680;DHT22;838;51.794;12.258;2022-07-15T14:02:15;21.90;1.00
1680;DHT22;838;51.794;12.258;2022-07-15T14:04:41;22.00;1.00
1680;DHT22;838;51.794;12.258;2022-07-15T14:07:06;21.90;1.00
1680;DHT22;838;51.794;12.258;2022-07-15T14:09:33;21.80;1.00
1680;DHT22;838;51.794;12.258;2022-07-15T14:11:59;21.80;1.00
1680;DHT22;838;51.794;12.258;2022-07-15T14:14:25;21.80;1.00
1680;DHT22;838;51.794;12.258;2022-07-15T14:16:52;21.80;1.00
1680;DHT22;838;51.794;12.258;2022-07-15T14:19:18;21.40;1.00
1680;DHT22;838;51.794;12.258;2022-07-15T14:21:43;21.00;1.00
1680;DHT22;838;51.794;12.258;2022-07-15T14:24:09;21.20;1.00
1680;DHT22;838;51.794;12.258;2022-07-15T14:26:34;21.60;1.00
1680;DHT22;838;51.794;12.258;2022-07-15T14:29:00;21.90;1.00
1680;DHT22;838;51.794;12.258;2022-07-15T14:31:26;21.70;1.00
1680;DHT22;838;51.794;12.258;2022-07-15T14:33:51;21.20;1.00
1680;DHT22;838;51.794;12.258;2022-07-15T14:36:17;21.10;1.00
1680;DHT22;838;51.794;12.258;2022-07-15T14:38:43;21.20;1.00
1680;DHT22;838;51.794;12.258;2022-07-15T14:41:08;21.20;1.00
1680;DHT22;838;51.794;12.258;2022-07-15T14:43:34;21.10;1.00
1680;DHT22;838;51.794;12.258;2022-07-15T14:46:00;21.20;1.00
1680;DHT22;838;51.794;12.258;2022-07-15T14:48:26;21.30;1.00
1680;DHT22;838;51.794;12.258;2022-07-15T14:50:55;21.20;1.00
1680;DHT22;838;51.794;12.258;2022-07-15T14:53:21;21.10;1.00
1680;DHT22;838;51.794;12.258;2022-07-15T14:55:46;21.30;1.00
1680;DHT22;838;51.794;12.258;2022-07-15T14:58:12;21.50;1.00
1680;DHT22;838;51.794;12.258;2022-07-15T15:00:42;21.80;1.00
1680;DHT22;838;51.794;12.258;2022-07-15T15:03:08;22.10;1.00
1680;DHT22;838;51.794;12.258;2022-07-15T15:05:34;22.20;1.00
1680;DHT22;838;51.794;12.258;2022-07-15T15:08:00;22.10;1.00
1680;DHT22;838;51.794;12.258;2022-07-15T15:10:26;21.90;1.00
1680;DHT22;838;51.794;12.258;2022-07-15T15:12:52;21.90;1.00
1680;DHT22;838;51.794;12.258;2022-07-15T15:15:18;21.50;1.00
1680;DHT22;838;51.794;12.258;2022-07-15T15:17:44;21.40;1.00
1680;DHT22;838;51.794;12.258;2022-07-15T15:20:11;21.60;1.00
1680;DHT22;838;51.794;12.258;2022-07-15T15:22:37;21.60;1.00
1680;DHT22;838;51.794;12.258;2022-07-15T15:25:04;21.60;1.00
1680;DHT22;838;51.794;12.258;2022-07-15T15:27:30;21.70;1.00
1680;DHT22;838;51.794;12.258;2022-07-15T15:29:56;21.90;1.00
1680;DHT22;838;51.794;12.258;2022-07-15T15:32:22;22.10;1.00
1680;DHT22;838;51.794;12.258;2022-07-15T15:34:48;22.30;1.00
1680;DHT22;838;51.794;12.258;2022-07-15T15:37:14;22.30;1.00
1680;DHT22;838;51.794;12.258;2022-07-15T15:39:40;22.40;1.00
1680;DHT22;838;51.794;12.258;2022-07-15T15:42:06;22.40;1.00
1680;DHT22;838;51.794;12.258;2022-07-15T15:44:32;22.50;1.00
1680;DHT22;838;51.794;12.258;2022-07-15T15:46:58;22.50;1.00
1680;DHT22;838;51.794;12.258;2022-07-15T15:49:24;22.40;1.00
1680;DHT22;838;51.794;12.258;2022-07-15T15:51:49;22.30;1.00
1680;DHT22;838;51.794;12.258;2022-07-15T15:54:15;22.30;1.00
1680;DHT22;838;51.794;12.258;2022-07-15T15:56:42;22.10;1.00
1680;DHT22;838;51.794;12.258;2022-07-15T15:59:08;21.90;1.00
1680;DHT22;838;51.794;12.258;2022-07-15T16:01:34;21.80;1.00
1680;DHT22;838;51.794;12.258;2022-07-15T16:03:59;21.70;1.00
1680;DHT22;838;51.794;12.258;2022-07-15T16:06:25;21.50;1.00
1680;DHT22;838;51.794;12.258;2022-07-15T16:08:52;21.60;1.00
1680;DHT22;838;51.794;12.258;2022-07-15T16:11:18;21.60;1.00
1680;DHT22;838;51.794;12.258;2022-07-15T16:13:45;21.40;1.00
1680;DHT22;838;51.794;12.258;2022-07-15T16:16:11;21.40;1.00
1680;DHT22;838;51.794;12.258;2022-07-15T16:18:36;21.60;1.00
1680;DHT22;838;51.794;12.258;2022-07-15T16:21:02;21.60;1.00
1680;DHT22;838;51.794;12.258;2022-07-15T16:23:28;21.70;1.00
1680;DHT22;838;51.794;12.258;2022-07-15T16:25:53;21.80;1.00
1680;DHT22;838;51.794;12.258;2022-07-15T16:28:19;21.80;1.00
1680;DHT22;838;51.794;12.258;2022-07-15T16:30:47;22.10;1.00
1680;DHT22;838;51.794;12.258;2022-07-15T16:33:13;22.40;1.00
1680;DHT22;838;51.794;12.258;2022-07-15T16:35:39;22.70;1.00
1680;DHT22;838;51.794;12.258;2022-07-15T16:38:05;22.90;1.00
1680;DHT22;838;51.794;12.258;2022-07-15T16:40:32;22.90;1.00
1680;DHT22;838;51.794;12.258;2022-07-15T16:42:59;23.10;1.00
1680;DHT22;838;51.794;12.258;2022-07-15T16:45:24;22.90;1.00
1680;DHT22;838;51.794;12.258;2022-07-15T16:47:50;23.00;1.00
1680;DHT22;838;51.794;12.258;2022-07-15T16:50:17;22.80;1.00
1680;DHT22;838;51.794;12.258;2022-07-15T16:52:43;22.70;1.00
1680;DHT22;838;51.794;12.258;2022-07-15T16:55:10;22.40;1.00
1680;DHT22;838;51.794;12.258;2022-07-15T16:57:36;22.30;1.00
1680;DHT22;838;51.794;12.258;2022-07-15T17:00:04;22.30;1.00
1680;DHT22;838;51.794;12.258;2022-07-15T17:02:30;22.30;1.00
1680;DHT22;838;51.794;12.258;2022-07-15T17:04:56;22.30;1.00
1680;DHT22;838;51.794;12.258;2022-07-15T17:07:22;22.00;1.00
1680;DHT22;838;51.794;12.258;2022-07-15T17:09:47;21.80;1.00